createdAt,value
2018-07-20T00:00:09.283Z,19.09
2018-07-20T00:02:37.926Z,19.09
2018-07-20T00:05:07.812Z,19.01
2018-07-20T00:07:36.847Z,19.03
2018-07-20T00:10:05.799Z,19.03
2018-07-20T00:12:35.619Z,19.08
2018-07-20T00:15:04.428Z,19.06
2018-07-20T00:17:33.108Z,19.08
2018-07-20T00:20:01.827Z,19.09
2018-07-20T00:22:30.511Z,19.11
2018-07-20T00:24:59.326Z,19.11
2018-07-20T00:27:28.056Z,19.11
2018-07-20T00:29:56.733Z,19.11
2018-07-20T00:32:25.563Z,19.12
2018-07-20T00:34:54.205Z,19.12
2018-07-20T00:37:22.842Z,19.16
2018-07-20T00:39:51.589Z,19.19
2018-07-20T00:42:20.240Z,19.19
2018-07-20T00:44:48.925Z,19.20
2018-07-20T00:47:17.819Z,19.25
2018-07-20T00:49:47.673Z,19.27
2018-07-20T00:52:16.335Z,19.31
2018-07-20T00:54:44.987Z,19.29
2018-07-20T00:57:13.662Z,19.29
2018-07-20T00:59:42.291Z,19.34
2018-07-20T01:02:11.378Z,19.31
2018-07-20T01:04:40.062Z,19.34
2018-07-20T01:07:08.854Z,19.34
2018-07-20T01:09:37.726Z,19.40
2018-07-20T01:12:06.755Z,19.43
2018-07-20T01:14:35.541Z,19.45
2018-07-20T01:17:04.210Z,19.46
2018-07-20T01:19:32.860Z,19.45
2018-07-20T01:22:01.519Z,19.48
2018-07-20T01:24:30.234Z,19.51
2018-07-20T01:26:59.300Z,19.52
2018-07-20T01:29:27.960Z,19.54
2018-07-20T01:31:56.578Z,19.53
2018-07-20T01:34:25.185Z,19.52
2018-07-20T01:36:53.904Z,19.52
2018-07-20T01:39:22.589Z,19.52
2018-07-20T01:41:51.338Z,19.51
2018-07-20T01:44:20.125Z,19.54
2018-07-20T01:46:48.800Z,19.51
2018-07-20T01:49:17.467Z,19.52
2018-07-20T01:51:46.130Z,19.53
2018-07-20T01:54:14.778Z,19.52
2018-07-20T01:56:43.414Z,18.09
2018-07-20T01:59:12.089Z,19.44
2018-07-20T02:01:40.752Z,19.52
2018-07-20T02:04:09.400Z,19.53
2018-07-20T02:06:38.075Z,19.53
2018-07-20T02:09:09.370Z,19.54
2018-07-20T02:11:38.020Z,19.55
2018-07-20T02:14:06.921Z,19.57
2018-07-20T02:16:35.582Z,19.62
2018-07-20T02:19:04.287Z,19.63
2018-07-20T02:21:32.983Z,19.61
2018-07-20T02:24:01.599Z,19.59
2018-07-20T02:26:30.282Z,19.55
2018-07-20T02:28:58.919Z,19.56
2018-07-20T02:31:27.608Z,19.57
2018-07-20T02:33:56.296Z,19.57
2018-07-20T02:36:24.943Z,19.56
2018-07-20T02:38:53.606Z,19.55
2018-07-20T02:41:22.278Z,19.52
2018-07-20T02:43:50.947Z,19.50
2018-07-20T02:46:19.595Z,19.51
2018-07-20T02:48:48.229Z,19.46
2018-07-20T02:51:16.878Z,19.42
2018-07-20T02:53:45.536Z,19.43
2018-07-20T02:56:14.260Z,19.42
2018-07-20T02:58:42.916Z,19.46
2018-07-20T03:01:11.564Z,19.51
2018-07-20T03:03:40.214Z,19.51
2018-07-20T03:06:08.943Z,19.46
2018-07-20T03:08:37.649Z,19.42
2018-07-20T03:11:06.379Z,19.35
2018-07-20T03:13:35.029Z,19.25
2018-07-20T03:16:03.865Z,19.24
2018-07-20T03:18:32.831Z,19.23
2018-07-20T03:21:01.537Z,19.17
2018-07-20T03:23:30.261Z,19.16
2018-07-20T03:25:58.891Z,19.19
2018-07-20T03:28:27.572Z,19.19
2018-07-20T03:30:56.295Z,19.19
2018-07-20T03:33:24.991Z,19.21
2018-07-20T03:35:53.656Z,19.22
2018-07-20T03:38:22.303Z,19.25
2018-07-20T03:40:50.966Z,19.30
2018-07-20T03:43:19.594Z,19.32
2018-07-20T03:45:48.265Z,19.34
2018-07-20T03:48:16.984Z,19.33
2018-07-20T03:50:45.615Z,19.37
2018-07-20T03:53:14.459Z,19.41
2018-07-20T03:55:43.076Z,19.45
2018-07-20T03:58:11.738Z,19.50
2018-07-20T04:00:40.367Z,19.52
2018-07-20T04:03:08.987Z,19.57
2018-07-20T04:05:38.661Z,19.65
2018-07-20T04:08:07.376Z,19.70
2018-07-20T04:10:36.030Z,19.70
2018-07-20T04:13:04.773Z,19.75
2018-07-20T04:15:33.463Z,19.77
2018-07-20T04:18:02.164Z,19.76
2018-07-20T04:20:30.830Z,19.81
2018-07-20T04:22:59.530Z,19.82
2018-07-20T04:25:28.170Z,19.85
2018-07-20T04:27:56.884Z,19.90
2018-07-20T04:30:25.576Z,19.95
2018-07-20T04:32:54.190Z,19.95
2018-07-20T04:35:22.974Z,20.02
2018-07-20T04:37:51.596Z,20.06
2018-07-20T04:40:20.254Z,20.09
2018-07-20T04:42:48.895Z,20.15
2018-07-20T04:45:17.543Z,20.19
2018-07-20T04:47:46.192Z,20.22
2018-07-20T04:50:14.805Z,20.26
2018-07-20T04:52:43.434Z,20.29
2018-07-20T04:55:12.055Z,20.37
2018-07-20T04:57:40.707Z,20.49
2018-07-20T05:00:09.502Z,20.54
2018-07-20T05:02:38.152Z,20.59
2018-07-20T05:05:06.875Z,20.62
2018-07-20T05:07:35.560Z,20.64
2018-07-20T05:10:04.498Z,20.63
2018-07-20T05:12:33.181Z,20.62
2018-07-20T05:15:01.932Z,20.65
2018-07-20T05:17:30.571Z,20.67
2018-07-20T05:19:59.272Z,20.64
2018-07-20T05:22:27.925Z,20.76
2018-07-20T05:24:56.578Z,20.69
2018-07-20T05:27:25.223Z,20.63
2018-07-20T05:29:53.863Z,20.70
2018-07-20T05:32:23.144Z,20.80
2018-07-20T05:34:51.797Z,20.93
2018-07-20T05:37:20.442Z,21.02
2018-07-20T05:39:49.066Z,21.20
2018-07-20T05:42:17.782Z,21.73
2018-07-20T05:44:46.412Z,22.01
2018-07-20T05:47:15.140Z,22.46
2018-07-20T05:49:43.840Z,22.15
2018-07-20T05:52:12.474Z,21.82
2018-07-20T05:54:41.242Z,21.52
2018-07-20T05:57:09.897Z,21.52
2018-07-20T05:59:38.552Z,21.61
2018-07-20T06:02:07.319Z,21.59
2018-07-20T06:04:36.059Z,21.66
2018-07-20T06:07:04.787Z,21.60
2018-07-20T06:09:33.418Z,21.54
2018-07-20T06:12:02.142Z,21.56
2018-07-20T06:14:30.926Z,21.55
2018-07-20T06:16:59.563Z,21.66
2018-07-20T06:19:28.214Z,21.75
2018-07-20T06:21:56.864Z,21.85
2018-07-20T06:24:25.624Z,21.83
2018-07-20T06:26:54.329Z,21.90
2018-07-20T06:29:22.954Z,21.99
2018-07-20T06:31:51.612Z,22.03
2018-07-20T06:34:20.238Z,22.07
2018-07-20T06:36:48.878Z,21.99
2018-07-20T06:39:17.561Z,22.04
2018-07-20T06:41:46.201Z,22.16
2018-07-20T06:44:14.832Z,22.23
2018-07-20T06:46:43.480Z,22.25
2018-07-20T06:49:12.124Z,22.30
2018-07-20T06:51:40.828Z,22.33
2018-07-20T06:54:09.515Z,22.41
2018-07-20T06:56:38.287Z,22.53
2018-07-20T06:59:06.963Z,22.56
2018-07-20T07:01:35.640Z,22.58
2018-07-20T07:04:04.315Z,22.58
2018-07-20T07:06:33.013Z,22.61
2018-07-20T07:09:01.780Z,22.67
2018-07-20T07:11:30.485Z,22.68
2018-07-20T07:13:59.154Z,22.84
2018-07-20T07:16:27.818Z,22.99
2018-07-20T07:18:56.547Z,23.19
2018-07-20T07:21:25.227Z,23.52
2018-07-20T07:23:53.835Z,23.40
2018-07-20T07:26:22.480Z,23.24
2018-07-20T07:28:51.260Z,23.09
2018-07-20T07:31:19.891Z,23.10
2018-07-20T07:33:48.552Z,23.26
2018-07-20T07:36:17.218Z,23.17
2018-07-20T07:38:45.984Z,23.06
2018-07-20T07:41:14.649Z,23.27
2018-07-20T07:43:43.373Z,23.62
2018-07-20T07:46:12.020Z,23.80
2018-07-20T07:48:40.695Z,23.77
2018-07-20T07:51:09.359Z,23.84
2018-07-20T07:53:38.059Z,24.51
2018-07-20T07:56:06.718Z,24.86
2018-07-20T07:58:35.358Z,25.63
2018-07-20T08:01:04.036Z,25.98
2018-07-20T08:03:32.781Z,26.34
2018-07-20T08:06:01.398Z,27.63
2018-07-20T08:08:30.059Z,27.83
2018-07-20T08:10:58.703Z,28.21
2018-07-20T08:13:27.363Z,27.32
2018-07-20T08:15:56.049Z,27.41
2018-07-20T08:18:24.729Z,27.88
2018-07-20T08:20:53.881Z,27.66
2018-07-20T08:23:22.561Z,27.46
2018-07-20T08:25:51.199Z,26.31
2018-07-20T08:28:19.902Z,27.13
2018-07-20T08:30:48.599Z,26.97
2018-07-20T08:33:17.249Z,26.79
2018-07-20T08:35:46.020Z,26.47
2018-07-20T08:38:14.749Z,26.11
2018-07-20T08:40:43.477Z,26.25
2018-07-20T08:43:12.113Z,26.07
2018-07-20T08:45:40.836Z,26.44
2018-07-20T08:48:09.551Z,27.07
2018-07-20T08:50:38.265Z,26.71
2018-07-20T08:53:06.894Z,26.56
2018-07-20T08:55:35.551Z,25.92
2018-07-20T08:58:04.227Z,26.59
2018-07-20T09:00:32.893Z,26.44
2018-07-20T09:03:01.879Z,25.55
2018-07-20T09:05:30.763Z,25.70
2018-07-20T09:07:59.455Z,26.02
2018-07-20T09:10:28.109Z,26.88
2018-07-20T09:12:56.903Z,26.09
2018-07-20T09:15:25.530Z,27.38
2018-07-20T09:17:54.294Z,27.73
2018-07-20T09:20:22.973Z,28.30
2018-07-20T09:22:51.628Z,27.43
2018-07-20T09:25:20.254Z,26.51
2018-07-20T09:27:48.865Z,26.26
2018-07-20T09:30:17.495Z,25.86
2018-07-20T09:32:46.147Z,25.77
2018-07-20T09:35:14.776Z,26.44
2018-07-20T09:37:43.465Z,27.21
2018-07-20T09:40:12.119Z,28.05
2018-07-20T09:42:40.788Z,28.14
2018-07-20T09:45:09.442Z,26.63
2018-07-20T09:47:38.061Z,25.93
2018-07-20T09:50:06.727Z,27.15
2018-07-20T09:52:35.391Z,26.43
2018-07-20T09:55:04.088Z,26.42
2018-07-20T09:57:32.742Z,26.08
2018-07-20T10:00:01.376Z,26.08
2018-07-20T10:02:30.103Z,25.91
2018-07-20T10:04:58.766Z,26.10
2018-07-20T10:07:27.490Z,27.45
2018-07-20T10:09:56.146Z,27.81
2018-07-20T10:12:24.778Z,28.81
2018-07-20T10:14:53.760Z,29.18
2018-07-20T10:17:22.431Z,27.66
2018-07-20T10:19:51.083Z,26.70
2018-07-20T10:22:19.824Z,27.40
2018-07-20T10:24:48.502Z,28.70
2018-07-20T10:27:17.186Z,28.69
2018-07-20T10:29:45.863Z,28.40
2018-07-20T10:32:14.517Z,28.19
2018-07-20T10:34:43.176Z,27.56
2018-07-20T10:37:11.843Z,27.23
2018-07-20T10:39:40.482Z,27.09
2018-07-20T10:42:09.148Z,27.59
2018-07-20T10:44:37.902Z,27.94
2018-07-20T10:47:06.610Z,27.42
2018-07-20T10:49:35.248Z,27.22
2018-07-20T10:52:03.993Z,27.14
2018-07-20T10:54:32.593Z,25.29
2018-07-20T10:57:01.245Z,25.68
2018-07-20T10:59:29.879Z,25.49
2018-07-20T11:01:58.614Z,25.82
2018-07-20T11:04:27.274Z,27.85
2018-07-20T11:06:55.906Z,28.55
2018-07-20T11:09:24.568Z,29.22
2018-07-20T11:11:53.642Z,29.26
2018-07-20T11:14:23.219Z,29.19
2018-07-20T11:16:51.935Z,28.04
2018-07-20T11:19:20.687Z,27.01
2018-07-20T11:21:49.429Z,27.60
2018-07-20T11:24:18.081Z,26.55
2018-07-20T11:26:46.798Z,27.73
2018-07-20T11:29:15.537Z,28.69
2018-07-20T11:31:44.187Z,29.44
2018-07-20T11:34:12.826Z,29.35
2018-07-20T11:36:41.460Z,29.73
2018-07-20T11:39:10.568Z,29.74
2018-07-20T11:41:39.900Z,29.54
2018-07-20T11:44:15.178Z,29.76
2018-07-20T11:46:43.955Z,29.88
2018-07-20T11:49:12.617Z,29.95
2018-07-20T11:51:41.255Z,29.68
2018-07-20T11:54:09.845Z,29.70
2018-07-20T11:56:38.474Z,29.73
2018-07-20T11:59:07.100Z,29.76
2018-07-20T12:01:35.758Z,29.51
2018-07-20T12:04:04.411Z,29.42
2018-07-20T12:06:33.176Z,29.33
2018-07-20T12:09:01.774Z,29.05
2018-07-20T12:11:30.415Z,29.21
2018-07-20T12:13:59.031Z,29.19
2018-07-20T12:16:28.081Z,28.75
2018-07-20T12:18:56.692Z,28.97
2018-07-20T12:21:25.355Z,28.83
2018-07-20T12:23:54.054Z,28.71
2018-07-20T12:26:22.927Z,28.51
2018-07-20T12:28:51.570Z,28.40
2018-07-20T12:31:20.198Z,28.21
2018-07-20T12:33:48.798Z,28.09
2018-07-20T12:36:17.456Z,27.96
2018-07-20T12:38:46.161Z,28.04
2018-07-20T12:41:14.904Z,28.00
2018-07-20T12:43:43.690Z,27.95
2018-07-20T12:46:12.383Z,28.06
2018-07-20T12:48:41.059Z,27.78
2018-07-20T12:51:09.702Z,27.94
2018-07-20T12:53:38.417Z,27.91
2018-07-20T12:56:07.077Z,27.80
2018-07-20T12:58:35.720Z,27.94
2018-07-20T13:01:04.425Z,27.67
2018-07-20T13:03:33.077Z,27.67
2018-07-20T13:06:01.724Z,27.47
2018-07-20T13:08:30.399Z,27.50
2018-07-20T13:10:59.095Z,27.16
2018-07-20T13:13:27.880Z,27.03
2018-07-20T13:15:56.536Z,27.05
2018-07-20T13:18:25.194Z,27.31
2018-07-20T13:20:53.920Z,27.68
2018-07-20T13:23:22.610Z,27.78
2018-07-20T13:25:51.239Z,27.89
2018-07-20T13:28:19.965Z,28.42
2018-07-20T13:30:48.623Z,28.88
2018-07-20T13:33:17.280Z,29.55
2018-07-20T13:35:45.948Z,30.21
2018-07-20T13:38:14.658Z,30.74
2018-07-20T13:40:43.331Z,31.26
2018-07-20T13:43:11.981Z,31.07
2018-07-20T13:45:40.689Z,31.20
2018-07-20T13:48:09.381Z,30.50
2018-07-20T13:50:38.059Z,28.59
2018-07-20T13:53:06.911Z,27.18
2018-07-20T13:55:35.644Z,26.81
2018-07-20T13:58:04.352Z,26.81
2018-07-20T14:00:33.031Z,26.83
2018-07-20T14:03:01.700Z,26.67
2018-07-20T14:05:30.389Z,26.71
2018-07-20T14:07:59.031Z,26.63
2018-07-20T14:10:27.790Z,26.54
2018-07-20T14:12:56.420Z,26.71
2018-07-20T14:15:25.130Z,26.60
2018-07-20T14:17:53.900Z,26.59
2018-07-20T14:20:22.620Z,26.67
2018-07-20T14:22:51.588Z,26.55
2018-07-20T14:25:20.321Z,26.36
2018-07-20T14:27:48.944Z,26.21
2018-07-20T14:30:17.638Z,26.17
2018-07-20T14:32:46.315Z,26.24
2018-07-20T14:35:15.025Z,26.17
2018-07-20T14:37:43.658Z,26.17
2018-07-20T14:40:12.297Z,26.25
2018-07-20T14:42:41.194Z,26.18
2018-07-20T14:45:10.151Z,26.06
2018-07-20T14:47:38.850Z,26.06
2018-07-20T14:50:07.980Z,26.06
2018-07-20T14:52:36.662Z,26.07
2018-07-20T14:55:05.359Z,26.12
2018-07-20T14:57:34.007Z,26.09
2018-07-20T15:00:02.716Z,25.99
2018-07-20T15:02:31.405Z,26.02
2018-07-20T15:05:00.079Z,25.99
2018-07-20T15:07:28.804Z,25.96
2018-07-20T15:09:57.491Z,25.93
2018-07-20T15:12:26.187Z,25.88
2018-07-20T15:14:54.935Z,25.85
2018-07-20T15:17:23.621Z,25.79
2018-07-20T15:19:52.259Z,25.81
2018-07-20T15:22:21.018Z,25.83
2018-07-20T15:24:49.713Z,25.86
2018-07-20T15:27:18.415Z,25.94
2018-07-20T15:29:47.048Z,25.97
2018-07-20T15:32:15.707Z,25.80
2018-07-20T15:34:44.385Z,25.51
2018-07-20T15:37:13.154Z,25.60
2018-07-20T15:39:41.783Z,25.58
2018-07-20T15:42:10.496Z,25.59
2018-07-20T15:44:39.138Z,25.53
2018-07-20T15:47:07.827Z,25.44
2018-07-20T15:49:36.547Z,25.47
2018-07-20T15:54:34.015Z,25.40
2018-07-20T15:57:02.715Z,25.41
2018-07-20T15:59:31.440Z,24.25
2018-07-20T16:02:00.072Z,25.36
2018-07-20T16:04:28.780Z,25.28
2018-07-20T16:06:57.433Z,25.31
2018-07-20T16:09:26.235Z,25.30
2018-07-20T16:11:54.946Z,25.38
2018-07-20T16:14:23.732Z,25.44
2018-07-20T16:16:52.400Z,25.48
2018-07-20T16:19:21.034Z,25.48
2018-07-20T16:21:49.698Z,25.42
2018-07-20T16:24:18.555Z,25.33
2018-07-20T16:26:47.302Z,25.24
2018-07-20T16:29:15.970Z,25.27
2018-07-20T16:31:44.716Z,25.24
2018-07-20T16:34:13.401Z,25.13
2018-07-20T16:36:42.114Z,25.09
2018-07-20T16:39:11.377Z,25.02
2018-07-20T16:41:40.038Z,25.00
2018-07-20T16:44:08.734Z,25.00
2018-07-20T16:46:38.285Z,24.94
2018-07-20T16:49:07.086Z,24.94
2018-07-20T16:51:35.739Z,24.90
2018-07-20T16:54:04.446Z,24.84
2018-07-20T16:56:33.146Z,24.79
2018-07-20T16:59:01.860Z,24.75
2018-07-20T17:01:30.549Z,24.74
2018-07-20T17:03:59.214Z,24.71
2018-07-20T17:06:27.886Z,24.68
2018-07-20T17:08:56.611Z,24.66
2018-07-20T17:11:25.265Z,24.63
2018-07-20T17:13:54.010Z,24.57
2018-07-20T17:16:22.785Z,24.57
2018-07-20T17:18:51.449Z,24.54
2018-07-20T17:21:20.143Z,24.52
2018-07-20T17:23:48.818Z,24.49
2018-07-20T17:26:17.500Z,24.46
2018-07-20T17:28:46.191Z,24.40
2018-07-20T17:31:14.862Z,24.35
2018-07-20T17:33:43.487Z,24.30
2018-07-20T17:36:12.149Z,24.27
2018-07-20T17:38:40.869Z,24.20
2018-07-20T17:41:09.552Z,24.17
2018-07-20T17:43:38.255Z,24.11
2018-07-20T17:46:07.222Z,24.08
2018-07-20T17:48:35.873Z,24.02
2018-07-20T17:51:04.552Z,23.96
2018-07-20T17:53:33.211Z,23.92
2018-07-20T17:56:01.972Z,23.65
2018-07-20T17:58:30.632Z,23.82
2018-07-20T18:00:59.293Z,23.80
2018-07-20T18:03:27.951Z,23.79
2018-07-20T18:05:56.625Z,23.77
2018-07-20T18:08:25.250Z,23.73
2018-07-20T18:10:53.941Z,23.70
2018-07-20T18:13:22.795Z,23.64
2018-07-20T18:15:51.499Z,23.55
2018-07-20T18:18:20.441Z,23.49
2018-07-20T18:20:49.148Z,23.48
2018-07-20T18:23:18.669Z,23.45
2018-07-20T18:25:47.353Z,23.44
2018-07-20T18:28:16.961Z,23.47
2018-07-20T18:30:45.687Z,23.43
2018-07-20T18:33:14.382Z,23.38
2018-07-20T18:35:43.072Z,23.35
2018-07-20T18:38:11.746Z,23.34
2018-07-20T18:40:40.450Z,23.27
2018-07-20T18:43:09.169Z,22.22
2018-07-20T18:45:37.831Z,23.24
2018-07-20T18:48:06.631Z,23.25
2018-07-20T18:50:35.312Z,23.21
2018-07-20T18:53:04.049Z,23.19
2018-07-20T18:55:32.712Z,23.13
2018-07-20T18:58:01.465Z,23.12
2018-07-20T19:00:30.170Z,23.09
2018-07-20T19:02:58.859Z,23.07
2018-07-20T19:05:27.979Z,23.10
2018-07-20T19:07:56.778Z,23.08
2018-07-20T19:10:25.528Z,23.08
2018-07-20T19:12:54.220Z,23.04
2018-07-20T19:15:22.939Z,23.00
2018-07-20T19:17:51.859Z,22.96
2018-07-20T19:20:20.598Z,22.92
2018-07-20T19:22:49.238Z,22.91
2018-07-20T19:25:17.886Z,22.90
2018-07-20T19:27:46.567Z,22.87
2018-07-20T19:30:15.254Z,22.86
2018-07-20T19:32:43.951Z,22.89
2018-07-20T19:35:12.670Z,22.86
2018-07-20T19:37:41.365Z,22.86
2018-07-20T19:40:10.238Z,22.85
2018-07-20T19:42:39.538Z,22.87
2018-07-20T19:45:08.278Z,22.86
2018-07-20T19:47:36.986Z,22.82
2018-07-20T19:50:05.807Z,22.80
2018-07-20T19:52:34.480Z,22.78
2018-07-20T19:55:03.230Z,22.77
2018-07-20T19:57:32.250Z,22.80
2018-07-20T20:00:01.012Z,22.81
2018-07-20T20:02:29.752Z,22.80
2018-07-20T20:04:58.409Z,22.80
2018-07-20T20:07:27.112Z,22.81
2018-07-20T20:09:55.768Z,22.82
2018-07-20T20:12:24.414Z,22.85
2018-07-20T20:14:53.132Z,22.86
2018-07-20T20:17:21.802Z,22.87
2018-07-20T20:19:50.999Z,22.88
2018-07-20T20:22:19.696Z,22.88
2018-07-20T20:24:48.373Z,22.89
2018-07-20T20:27:17.818Z,22.92
2018-07-20T20:29:46.796Z,22.90
2018-07-20T20:32:15.455Z,22.89
2018-07-20T20:34:44.643Z,22.88
2018-07-20T20:37:13.456Z,22.88
2018-07-20T20:39:42.206Z,22.88
2018-07-20T20:42:11.130Z,22.87
2018-07-20T20:44:39.779Z,22.86
2018-07-20T20:47:09.091Z,22.85
2018-07-20T20:49:37.815Z,22.86
2018-07-20T20:52:06.488Z,22.83
2018-07-20T20:54:35.115Z,22.80
2018-07-20T20:57:03.862Z,22.77
2018-07-20T20:59:32.547Z,22.76
2018-07-20T21:02:01.238Z,22.70
2018-07-20T21:04:29.892Z,22.69
2018-07-20T21:06:58.559Z,22.64
2018-07-20T21:09:27.254Z,22.64
2018-07-20T21:11:56.076Z,22.61
2018-07-20T21:14:24.693Z,22.59
2018-07-20T21:16:53.355Z,22.59
2018-07-20T21:19:22.055Z,22.55
2018-07-20T21:21:50.731Z,22.54
2018-07-20T21:24:19.384Z,22.50
2018-07-20T21:26:48.043Z,22.45
2018-07-20T21:29:16.825Z,22.41
2018-07-20T21:31:45.575Z,22.40
2018-07-20T21:34:14.229Z,22.38
2018-07-20T21:36:42.875Z,22.38
2018-07-20T21:39:13.100Z,22.36
2018-07-20T21:41:42.690Z,22.34
2018-07-20T21:44:11.501Z,22.30
2018-07-20T21:46:40.463Z,22.31
2018-07-20T21:49:09.122Z,22.30
2018-07-20T21:51:37.864Z,22.31
2018-07-20T21:54:06.617Z,22.31
2018-07-20T21:56:35.304Z,22.34
2018-07-20T21:59:04.037Z,22.36
2018-07-20T22:01:32.691Z,22.35
2018-07-20T22:04:01.351Z,22.38
2018-07-20T22:06:29.968Z,22.36
2018-07-20T22:08:58.620Z,22.36
2018-07-20T22:11:27.319Z,22.35
2018-07-20T22:13:56.012Z,22.34
2018-07-20T22:16:24.659Z,21.18
2018-07-20T22:18:53.372Z,22.33
2018-07-20T22:21:22.011Z,22.32
2018-07-20T22:23:50.944Z,22.32
2018-07-20T22:26:19.586Z,22.28
2018-07-20T22:28:48.239Z,22.29
2018-07-20T22:31:16.887Z,22.25
2018-07-20T22:33:45.545Z,22.25
2018-07-20T22:36:14.178Z,22.27
2018-07-20T22:38:42.862Z,22.23
2018-07-20T22:41:11.624Z,22.22
2018-07-20T22:43:40.249Z,22.17
2018-07-20T22:46:09.074Z,22.17
2018-07-20T22:48:37.758Z,22.09
2018-07-20T22:51:06.498Z,22.04
2018-07-20T22:53:35.151Z,21.99
2018-07-20T22:56:03.903Z,21.97
2018-07-20T22:58:32.544Z,21.96
2018-07-20T23:01:01.196Z,21.98
2018-07-20T23:03:29.880Z,21.98
2018-07-20T23:05:58.484Z,21.95
2018-07-20T23:08:27.139Z,21.93
2018-07-20T23:10:55.762Z,21.90
2018-07-20T23:13:24.429Z,21.82
2018-07-20T23:15:53.073Z,21.79
2018-07-20T23:18:21.687Z,21.79
2018-07-20T23:20:50.330Z,21.74
2018-07-20T23:23:18.975Z,21.70
2018-07-20T23:25:47.612Z,21.68
2018-07-20T23:28:16.236Z,21.64
2018-07-20T23:30:44.898Z,21.57
2018-07-20T23:33:13.536Z,21.53
2018-07-20T23:35:45.308Z,21.53
2018-07-20T23:38:13.909Z,21.50
2018-07-20T23:40:42.687Z,21.47
2018-07-20T23:43:15.760Z,21.42
2018-07-20T23:45:51.129Z,21.39
2018-07-20T23:48:28.213Z,21.39
2018-07-20T23:50:57.256Z,21.38
2018-07-20T23:53:25.895Z,21.38
2018-07-20T23:55:54.550Z,21.34
2018-07-20T23:58:23.259Z,21.34
